sensor_id;sensor_type;location;lat;lon;timestamp;P1;durP1;ratioP1;P2;durP2;ratioP2
20711;SDS011;10517;50.742;4.224;2022-10-31T00:01:16;8.55;;;4.88;;
20711;SDS011;10517;50.742;4.224;2022-10-31T00:03:50;11.02;;;6.03;;
20711;SDS011;10517;50.742;4.224;2022-10-31T00:06:16;14.90;;;4.85;;
20711;SDS011;10517;50.742;4.224;2022-10-31T00:08:45;8.63;;;5.43;;
20711;SDS011;10517;50.742;4.224;2022-10-31T00:11:11;7.32;;;5.10;;
20711;SDS011;10517;50.742;4.224;2022-10-31T00:13:37;11.20;;;4.68;;
20711;SDS011;10517;50.742;4.224;2022-10-31T00:16:03;9.90;;;4.90;;
20711;SDS011;10517;50.742;4.224;2022-10-31T00:18:29;11.70;;;5.57;;
20711;SDS011;10517;50.742;4.224;2022-10-31T00:20:58;11.10;;;5.70;;
20711;SDS011;10517;50.742;4.224;2022-10-31T00:23:25;9.57;;;5.65;;
20711;SDS011;10517;50.742;4.224;2022-10-31T00:25:50;8.95;;;5.10;;
20711;SDS011;10517;50.742;4.224;2022-10-31T00:28:16;9.18;;;5.38;;
20711;SDS011;10517;50.742;4.224;2022-10-31T00:30:41;11.50;;;5.85;;
20711;SDS011;10517;50.742;4.224;2022-10-31T00:33:07;12.95;;;5.20;;
20711;SDS011;10517;50.742;4.224;2022-10-31T00:35:32;10.20;;;5.32;;
20711;SDS011;10517;50.742;4.224;2022-10-31T00:37:58;23.83;;;5.47;;
20711;SDS011;10517;50.742;4.224;2022-10-31T00:40:23;9.10;;;5.05;;
20711;SDS011;10517;50.742;4.224;2022-10-31T00:42:49;6.50;;;4.45;;
20711;SDS011;10517;50.742;4.224;2022-10-31T00:45:15;16.42;;;6.22;;
20711;SDS011;10517;50.742;4.224;2022-10-31T00:47:40;10.70;;;4.40;;
20711;SDS011;10517;50.742;4.224;2022-10-31T00:50:06;8.73;;;4.05;;
20711;SDS011;10517;50.742;4.224;2022-10-31T00:52:32;7.88;;;4.80;;
20711;SDS011;10517;50.742;4.224;2022-10-31T00:54:58;16.20;;;5.32;;
20711;SDS011;10517;50.742;4.224;2022-10-31T00:57:24;11.15;;;5.03;;
20711;SDS011;10517;50.742;4.224;2022-10-31T00:59:49;5.20;;;4.20;;
20711;SDS011;10517;50.742;4.224;2022-10-31T01:02:15;6.50;;;4.50;;
20711;SDS011;10517;50.742;4.224;2022-10-31T01:04:40;7.88;;;4.80;;
20711;SDS011;10517;50.742;4.224;2022-10-31T01:07:06;10.02;;;5.28;;
20711;SDS011;10517;50.742;4.224;2022-10-31T01:09:32;7.10;;;4.57;;
20711;SDS011;10517;50.742;4.224;2022-10-31T01:11:57;11.73;;;4.93;;
20711;SDS011;10517;50.742;4.224;2022-10-31T01:14:23;8.43;;;4.10;;
20711;SDS011;10517;50.742;4.224;2022-10-31T01:16:48;8.05;;;4.45;;
20711;SDS011;10517;50.742;4.224;2022-10-31T01:19:14;8.02;;;4.75;;
20711;SDS011;10517;50.742;4.224;2022-10-31T01:21:39;9.80;;;4.55;;
20711;SDS011;10517;50.742;4.224;2022-10-31T01:24:05;10.35;;;5.22;;
20711;SDS011;10517;50.742;4.224;2022-10-31T01:26:32;9.20;;;4.70;;
20711;SDS011;10517;50.742;4.224;2022-10-31T01:28:59;6.45;;;4.68;;
20711;SDS011;10517;50.742;4.224;2022-10-31T01:31:27;7.45;;;4.25;;
20711;SDS011;10517;50.742;4.224;2022-10-31T01:33:55;7.78;;;4.22;;
20711;SDS011;10517;50.742;4.224;2022-10-31T01:36:22;6.28;;;3.78;;
20711;SDS011;10517;50.742;4.224;2022-10-31T01:38:53;5.65;;;4.13;;
20711;SDS011;10517;50.742;4.224;2022-10-31T01:41:22;8.57;;;4.40;;
20711;SDS011;10517;50.742;4.224;2022-10-31T01:43:56;7.18;;;4.47;;
20711;SDS011;10517;50.742;4.224;2022-10-31T01:46:25;9.43;;;3.53;;
20711;SDS011;10517;50.742;4.224;2022-10-31T01:48:58;14.07;;;5.47;;
20711;SDS011;10517;50.742;4.224;2022-10-31T01:51:28;11.18;;;4.70;;
20711;SDS011;10517;50.742;4.224;2022-10-31T01:53:58;6.57;;;4.25;;
20711;SDS011;10517;50.742;4.224;2022-10-31T01:56:29;7.15;;;4.07;;
20711;SDS011;10517;50.742;4.224;2022-10-31T01:58:56;9.35;;;4.25;;
20711;SDS011;10517;50.742;4.224;2022-10-31T02:01:24;10.40;;;4.53;;
20711;SDS011;10517;50.742;4.224;2022-10-31T02:03:50;7.30;;;4.72;;
20711;SDS011;10517;50.742;4.224;2022-10-31T02:06:27;12.32;;;4.57;;
20711;SDS011;10517;50.742;4.224;2022-10-31T02:09:09;6.72;;;4.82;;
20711;SDS011;10517;50.742;4.224;2022-10-31T02:11:37;6.32;;;4.80;;
20711;SDS011;10517;50.742;4.224;2022-10-31T02:14:03;12.88;;;5.05;;
20711;SDS011;10517;50.742;4.224;2022-10-31T02:16:29;9.73;;;4.80;;
20711;SDS011;10517;50.742;4.224;2022-10-31T02:18:55;15.13;;;5.38;;
20711;SDS011;10517;50.742;4.224;2022-10-31T02:21:23;11.25;;;5.20;;
20711;SDS011;10517;50.742;4.224;2022-10-31T02:30:14;6.55;;;3.67;;
20711;SDS011;10517;50.742;4.224;2022-10-31T02:35:35;7.38;;;4.68;;
20711;SDS011;10517;50.742;4.224;2022-10-31T02:38:30;5.65;;;4.13;;
20711;SDS011;10517;50.742;4.224;2022-10-31T02:41:15;6.40;;;3.83;;
20711;SDS011;10517;50.742;4.224;2022-10-31T02:46:44;12.20;;;3.88;;
20711;SDS011;10517;50.742;4.224;2022-10-31T02:49:20;8.23;;;4.60;;
20711;SDS011;10517;50.742;4.224;2022-10-31T02:51:49;9.93;;;4.68;;
20711;SDS011;10517;50.742;4.224;2022-10-31T02:54:22;8.80;;;4.22;;
20711;SDS011;10517;50.742;4.224;2022-10-31T02:56:51;11.10;;;4.35;;
20711;SDS011;10517;50.742;4.224;2022-10-31T02:59:24;13.50;;;4.80;;
20711;SDS011;10517;50.742;4.224;2022-10-31T03:01:54;7.95;;;4.55;;
20711;SDS011;10517;50.742;4.224;2022-10-31T03:04:44;8.43;;;5.18;;
20711;SDS011;10517;50.742;4.224;2022-10-31T03:13:12;7.47;;;5.03;;
20711;SDS011;10517;50.742;4.224;2022-10-31T03:18:50;9.70;;;4.00;;
20711;SDS011;10517;50.742;4.224;2022-10-31T03:21:41;8.07;;;4.40;;
20711;SDS011;10517;50.742;4.224;2022-10-31T03:24:13;5.75;;;3.90;;
20711;SDS011;10517;50.742;4.224;2022-10-31T03:26:41;7.32;;;4.75;;
20711;SDS011;10517;50.742;4.224;2022-10-31T03:29:11;6.90;;;4.23;;
20711;SDS011;10517;50.742;4.224;2022-10-31T03:31:50;9.73;;;4.72;;
20711;SDS011;10517;50.742;4.224;2022-10-31T03:34:21;11.73;;;5.83;;
20711;SDS011;10517;50.742;4.224;2022-10-31T03:36:48;7.07;;;3.97;;
20711;SDS011;10517;50.742;4.224;2022-10-31T03:39:17;9.63;;;4.87;;
20711;SDS011;10517;50.742;4.224;2022-10-31T03:41:49;8.05;;;4.40;;
20711;SDS011;10517;50.742;4.224;2022-10-31T03:44:28;7.40;;;4.88;;
20711;SDS011;10517;50.742;4.224;2022-10-31T03:46:55;17.02;;;5.18;;
20711;SDS011;10517;50.742;4.224;2022-10-31T03:49:22;11.95;;;5.00;;
20711;SDS011;10517;50.742;4.224;2022-10-31T03:51:50;10.10;;;5.50;;
20711;SDS011;10517;50.742;4.224;2022-10-31T03:57:19;7.83;;;4.00;;
20711;SDS011;10517;50.742;4.224;2022-10-31T04:00:09;8.13;;;4.40;;
20711;SDS011;10517;50.742;4.224;2022-10-31T04:02:38;14.93;;;4.77;;
20711;SDS011;10517;50.742;4.224;2022-10-31T04:05:08;7.63;;;4.50;;
20711;SDS011;10517;50.742;4.224;2022-10-31T04:07:39;5.80;;;4.37;;
20711;SDS011;10517;50.742;4.224;2022-10-31T04:10:10;7.53;;;4.27;;
20711;SDS011;10517;50.742;4.224;2022-10-31T04:12:38;7.33;;;4.20;;
20711;SDS011;10517;50.742;4.224;2022-10-31T04:15:05;7.47;;;4.37;;
20711;SDS011;10517;50.742;4.224;2022-10-31T04:17:33;8.97;;;4.33;;
20711;SDS011;10517;50.742;4.224;2022-10-31T04:20:02;10.20;;;4.93;;
20711;SDS011;10517;50.742;4.224;2022-10-31T04:22:29;9.60;;;4.93;;
20711;SDS011;10517;50.742;4.224;2022-10-31T04:24:54;9.30;;;4.57;;
20711;SDS011;10517;50.742;4.224;2022-10-31T04:27:20;8.60;;;5.03;;
20711;SDS011;10517;50.742;4.224;2022-10-31T04:29:45;9.37;;;4.60;;
20711;SDS011;10517;50.742;4.224;2022-10-31T04:32:11;6.32;;;3.83;;
20711;SDS011;10517;50.742;4.224;2022-10-31T04:34:36;8.13;;;4.77;;
20711;SDS011;10517;50.742;4.224;2022-10-31T04:37:02;7.50;;;4.27;;
20711;SDS011;10517;50.742;4.224;2022-10-31T04:39:27;8.67;;;5.13;;
20711;SDS011;10517;50.742;4.224;2022-10-31T04:41:53;9.20;;;4.00;;
20711;SDS011;10517;50.742;4.224;2022-10-31T04:44:19;6.20;;;3.83;;
20711;SDS011;10517;50.742;4.224;2022-10-31T04:46:44;6.27;;;4.60;;
20711;SDS011;10517;50.742;4.224;2022-10-31T04:49:10;7.57;;;4.50;;
20711;SDS011;10517;50.742;4.224;2022-10-31T04:51:35;8.87;;;4.90;;
20711;SDS011;10517;50.742;4.224;2022-10-31T04:54:01;11.13;;;4.40;;
20711;SDS011;10517;50.742;4.224;2022-10-31T04:56:27;8.87;;;4.80;;
20711;SDS011;10517;50.742;4.224;2022-10-31T04:58:52;10.60;;;4.57;;
20711;SDS011;10517;50.742;4.224;2022-10-31T05:01:18;9.07;;;4.70;;
20711;SDS011;10517;50.742;4.224;2022-10-31T05:03:43;6.50;;;4.17;;
20711;SDS011;10517;50.742;4.224;2022-10-31T05:06:09;9.90;;;4.90;;
20711;SDS011;10517;50.742;4.224;2022-10-31T05:08:34;10.93;;;4.80;;
20711;SDS011;10517;50.742;4.224;2022-10-31T05:11:00;13.93;;;5.23;;
20711;SDS011;10517;50.742;4.224;2022-10-31T05:13:26;9.03;;;5.23;;
20711;SDS011;10517;50.742;4.224;2022-10-31T05:15:52;8.20;;;3.87;;
20711;SDS011;10517;50.742;4.224;2022-10-31T05:18:18;12.67;;;4.57;;
20711;SDS011;10517;50.742;4.224;2022-10-31T05:20:43;9.73;;;4.63;;
20711;SDS011;10517;50.742;4.224;2022-10-31T05:23:09;11.07;;;4.70;;
20711;SDS011;10517;50.742;4.224;2022-10-31T05:25:34;9.90;;;4.75;;
20711;SDS011;10517;50.742;4.224;2022-10-31T05:28:00;7.07;;;4.60;;
20711;SDS011;10517;50.742;4.224;2022-10-31T05:30:27;8.03;;;3.90;;
20711;SDS011;10517;50.742;4.224;2022-10-31T05:32:55;7.97;;;5.07;;
20711;SDS011;10517;50.742;4.224;2022-10-31T05:35:22;9.25;;;4.60;;
20711;SDS011;10517;50.742;4.224;2022-10-31T05:37:52;12.05;;;4.13;;
20711;SDS011;10517;50.742;4.224;2022-10-31T05:40:18;6.90;;;4.30;;
20711;SDS011;10517;50.742;4.224;2022-10-31T05:42:45;9.93;;;4.83;;
20711;SDS011;10517;50.742;4.224;2022-10-31T05:45:15;8.68;;;4.65;;
20711;SDS011;10517;50.742;4.224;2022-10-31T05:47:42;5.53;;;4.22;;
20711;SDS011;10517;50.742;4.224;2022-10-31T05:50:14;7.23;;;4.70;;
20711;SDS011;10517;50.742;4.224;2022-10-31T05:52:40;6.27;;;4.87;;
20711;SDS011;10517;50.742;4.224;2022-10-31T05:55:05;10.10;;;5.07;;
20711;SDS011;10517;50.742;4.224;2022-10-31T05:57:31;7.83;;;4.70;;
20711;SDS011;10517;50.742;4.224;2022-10-31T05:59:58;6.67;;;4.30;;
20711;SDS011;10517;50.742;4.224;2022-10-31T06:02:23;9.55;;;4.90;;
20711;SDS011;10517;50.742;4.224;2022-10-31T06:04:50;8.80;;;4.35;;
20711;SDS011;10517;50.742;4.224;2022-10-31T06:07:15;10.80;;;4.63;;
20711;SDS011;10517;50.742;4.224;2022-10-31T06:09:41;8.75;;;4.60;;
20711;SDS011;10517;50.742;4.224;2022-10-31T06:12:06;11.52;;;5.65;;
20711;SDS011;10517;50.742;4.224;2022-10-31T06:14:32;9.55;;;5.53;;
20711;SDS011;10517;50.742;4.224;2022-10-31T06:16:57;31.10;;;6.15;;
20711;SDS011;10517;50.742;4.224;2022-10-31T06:19:23;21.70;;;5.55;;
20711;SDS011;10517;50.742;4.224;2022-10-31T06:21:48;21.00;;;7.15;;
20711;SDS011;10517;50.742;4.224;2022-10-31T06:24:14;21.10;;;6.18;;
20711;SDS011;10517;50.742;4.224;2022-10-31T06:26:40;17.70;;;5.45;;
20711;SDS011;10517;50.742;4.224;2022-10-31T06:29:05;14.05;;;5.78;;
20711;SDS011;10517;50.742;4.224;2022-10-31T06:31:31;16.48;;;6.35;;
20711;SDS011;10517;50.742;4.224;2022-10-31T06:33:57;10.50;;;5.68;;
20711;SDS011;10517;50.742;4.224;2022-10-31T06:36:22;8.95;;;6.20;;
20711;SDS011;10517;50.742;4.224;2022-10-31T06:38:48;7.68;;;6.05;;
20711;SDS011;10517;50.742;4.224;2022-10-31T06:41:13;15.60;;;5.53;;
20711;SDS011;10517;50.742;4.224;2022-10-31T06:43:39;12.35;;;6.10;;
20711;SDS011;10517;50.742;4.224;2022-10-31T06:46:04;15.60;;;6.43;;
20711;SDS011;10517;50.742;4.224;2022-10-31T06:48:31;13.65;;;6.10;;
20711;SDS011;10517;50.742;4.224;2022-10-31T06:51:00;7.88;;;5.40;;
20711;SDS011;10517;50.742;4.224;2022-10-31T06:53:26;12.48;;;7.00;;
20711;SDS011;10517;50.742;4.224;2022-10-31T06:55:55;11.93;;;6.63;;
20711;SDS011;10517;50.742;4.224;2022-10-31T06:58:21;14.43;;;6.70;;
20711;SDS011;10517;50.742;4.224;2022-10-31T07:00:46;14.00;;;6.00;;
20711;SDS011;10517;50.742;4.224;2022-10-31T07:03:13;7.68;;;5.18;;
20711;SDS011;10517;50.742;4.224;2022-10-31T07:05:40;12.32;;;5.93;;
20711;SDS011;10517;50.742;4.224;2022-10-31T07:08:07;13.45;;;6.32;;
20711;SDS011;10517;50.742;4.224;2022-10-31T07:10:35;15.40;;;5.80;;
20711;SDS011;10517;50.742;4.224;2022-10-31T07:13:03;7.95;;;5.10;;
20711;SDS011;10517;50.742;4.224;2022-10-31T07:15:33;10.60;;;5.45;;
20711;SDS011;10517;50.742;4.224;2022-10-31T07:18:00;8.07;;;5.20;;
20711;SDS011;10517;50.742;4.224;2022-10-31T07:20:27;11.07;;;5.45;;
20711;SDS011;10517;50.742;4.224;2022-10-31T07:22:53;15.77;;;7.55;;
20711;SDS011;10517;50.742;4.224;2022-10-31T07:25:19;12.57;;;7.35;;
20711;SDS011;10517;50.742;4.224;2022-10-31T07:27:45;11.48;;;5.80;;
20711;SDS011;10517;50.742;4.224;2022-10-31T07:30:11;12.18;;;6.15;;
20711;SDS011;10517;50.742;4.224;2022-10-31T07:32:40;9.68;;;6.60;;
20711;SDS011;10517;50.742;4.224;2022-10-31T07:35:08;14.43;;;7.07;;
20711;SDS011;10517;50.742;4.224;2022-10-31T07:37:34;15.55;;;6.28;;
20711;SDS011;10517;50.742;4.224;2022-10-31T07:40:00;19.60;;;6.95;;
20711;SDS011;10517;50.742;4.224;2022-10-31T07:42:26;11.95;;;6.47;;
20711;SDS011;10517;50.742;4.224;2022-10-31T07:44:52;11.32;;;6.03;;
20711;SDS011;10517;50.742;4.224;2022-10-31T07:47:18;11.98;;;6.68;;
20711;SDS011;10517;50.742;4.224;2022-10-31T07:49:43;15.93;;;7.00;;
20711;SDS011;10517;50.742;4.224;2022-10-31T07:52:09;10.52;;;6.68;;
20711;SDS011;10517;50.742;4.224;2022-10-31T07:54:34;9.70;;;6.55;;
20711;SDS011;10517;50.742;4.224;2022-10-31T07:57:00;10.40;;;6.15;;
20711;SDS011;10517;50.742;4.224;2022-10-31T07:59:25;12.95;;;7.25;;
20711;SDS011;10517;50.742;4.224;2022-10-31T08:01:52;13.57;;;7.00;;
20711;SDS011;10517;50.742;4.224;2022-10-31T08:04:17;11.02;;;6.00;;
20711;SDS011;10517;50.742;4.224;2022-10-31T08:06:43;12.15;;;5.75;;
20711;SDS011;10517;50.742;4.224;2022-10-31T08:09:08;9.77;;;5.63;;
20711;SDS011;10517;50.742;4.224;2022-10-31T08:11:34;14.90;;;6.68;;
20711;SDS011;10517;50.742;4.224;2022-10-31T08:14:00;11.88;;;6.35;;
20711;SDS011;10517;50.742;4.224;2022-10-31T08:16:26;13.05;;;6.18;;
20711;SDS011;10517;50.742;4.224;2022-10-31T08:18:52;11.80;;;6.05;;
20711;SDS011;10517;50.742;4.224;2022-10-31T08:21:20;20.48;;;6.70;;
20711;SDS011;10517;50.742;4.224;2022-10-31T08:23:46;12.45;;;6.47;;
20711;SDS011;10517;50.742;4.224;2022-10-31T08:26:11;9.25;;;6.68;;
20711;SDS011;10517;50.742;4.224;2022-10-31T08:28:37;15.43;;;6.68;;
20711;SDS011;10517;50.742;4.224;2022-10-31T08:31:02;12.27;;;7.57;;
20711;SDS011;10517;50.742;4.224;2022-10-31T08:33:29;11.63;;;6.80;;
20711;SDS011;10517;50.742;4.224;2022-10-31T08:35:57;15.63;;;8.18;;
20711;SDS011;10517;50.742;4.224;2022-10-31T08:38:23;17.27;;;7.57;;
20711;SDS011;10517;50.742;4.224;2022-10-31T08:40:49;16.65;;;6.82;;
20711;SDS011;10517;50.742;4.224;2022-10-31T08:43:15;10.50;;;7.47;;
20711;SDS011;10517;50.742;4.224;2022-10-31T08:45:42;10.95;;;7.13;;
20711;SDS011;10517;50.742;4.224;2022-10-31T08:48:09;11.95;;;7.15;;
20711;SDS011;10517;50.742;4.224;2022-10-31T08:50:36;17.88;;;6.60;;
20711;SDS011;10517;50.742;4.224;2022-10-31T08:53:03;17.63;;;7.68;;
20711;SDS011;10517;50.742;4.224;2022-10-31T08:55:34;16.42;;;8.25;;
20711;SDS011;10517;50.742;4.224;2022-10-31T08:58:01;19.48;;;7.43;;
20711;SDS011;10517;50.742;4.224;2022-10-31T09:00:28;19.00;;;6.95;;
20711;SDS011;10517;50.742;4.224;2022-10-31T09:02:57;15.73;;;8.48;;
20711;SDS011;10517;50.742;4.224;2022-10-31T09:05:24;11.88;;;7.60;;
20711;SDS011;10517;50.742;4.224;2022-10-31T09:07:50;14.02;;;6.97;;
20711;SDS011;10517;50.742;4.224;2022-10-31T09:10:16;11.25;;;7.45;;
20711;SDS011;10517;50.742;4.224;2022-10-31T09:12:41;14.70;;;7.82;;
20711;SDS011;10517;50.742;4.224;2022-10-31T09:15:07;8.25;;;5.63;;
20711;SDS011;10517;50.742;4.224;2022-10-31T09:17:33;10.55;;;6.68;;
20711;SDS011;10517;50.742;4.224;2022-10-31T09:19:59;12.13;;;6.53;;
20711;SDS011;10517;50.742;4.224;2022-10-31T09:22:24;13.38;;;5.95;;
20711;SDS011;10517;50.742;4.224;2022-10-31T09:24:50;13.30;;;5.43;;
20711;SDS011;10517;50.742;4.224;2022-10-31T09:27:15;14.85;;;5.43;;
20711;SDS011;10517;50.742;4.224;2022-10-31T09:29:41;14.63;;;5.72;;
20711;SDS011;10517;50.742;4.224;2022-10-31T09:32:06;12.05;;;5.25;;
20711;SDS011;10517;50.742;4.224;2022-10-31T09:34:32;16.52;;;5.97;;
20711;SDS011;10517;50.742;4.224;2022-10-31T09:36:57;13.95;;;5.25;;
20711;SDS011;10517;50.742;4.224;2022-10-31T09:39:23;10.07;;;4.80;;
20711;SDS011;10517;50.742;4.224;2022-10-31T09:47:21;9.82;;;4.22;;
20711;SDS011;10517;50.742;4.224;2022-10-31T09:52:56;12.30;;;5.00;;
20711;SDS011;10517;50.742;4.224;2022-10-31T09:55:44;8.60;;;5.28;;
20711;SDS011;10517;50.742;4.224;2022-10-31T09:58:16;6.45;;;4.13;;
20711;SDS011;10517;50.742;4.224;2022-10-31T10:00:45;11.32;;;4.80;;
20711;SDS011;10517;50.742;4.224;2022-10-31T10:05:53;9.80;;;4.65;;
20711;SDS011;10517;50.742;4.224;2022-10-31T10:08:40;10.13;;;4.40;;
20711;SDS011;10517;50.742;4.224;2022-10-31T10:11:20;7.95;;;4.57;;
20711;SDS011;10517;50.742;4.224;2022-10-31T10:31:14;9.00;;;4.70;;
20711;SDS011;10517;50.742;4.224;2022-10-31T10:33:18;12.52;;;4.95;;
20711;SDS011;10517;50.742;4.224;2022-10-31T10:35:47;9.10;;;4.85;;
20711;SDS011;10517;50.742;4.224;2022-10-31T10:41:22;11.90;;;4.95;;
20711;SDS011;10517;50.742;4.224;2022-10-31T10:43:50;9.13;;;5.40;;
20711;SDS011;10517;50.742;4.224;2022-10-31T10:49:19;11.70;;;5.07;;
20711;SDS011;10517;50.742;4.224;2022-10-31T10:57:31;9.68;;;5.30;;
20711;SDS011;10517;50.742;4.224;2022-10-31T11:00:02;15.40;;;5.28;;
20711;SDS011;10517;50.742;4.224;2022-10-31T11:02:40;9.25;;;5.00;;
20711;SDS011;10517;50.742;4.224;2022-10-31T11:05:12;10.13;;;4.32;;
20711;SDS011;10517;50.742;4.224;2022-10-31T11:07:48;10.02;;;5.22;;
20711;SDS011;10517;50.742;4.224;2022-10-31T11:10:14;10.15;;;4.70;;
20711;SDS011;10517;50.742;4.224;2022-10-31T11:12:41;14.00;;;5.13;;
20711;SDS011;10517;50.742;4.224;2022-10-31T11:15:19;9.13;;;4.78;;
20711;SDS011;10517;50.742;4.224;2022-10-31T11:17:51;8.63;;;4.95;;
20711;SDS011;10517;50.742;4.224;2022-10-31T11:22:44;11.52;;;4.82;;
20711;SDS011;10517;50.742;4.224;2022-10-31T11:25:24;13.02;;;4.70;;
20711;SDS011;10517;50.742;4.224;2022-10-31T11:30:31;11.05;;;5.00;;
20711;SDS011;10517;50.742;4.224;2022-10-31T11:33:11;9.25;;;4.72;;
20711;SDS011;10517;50.742;4.224;2022-10-31T11:35:45;8.93;;;4.75;;
20711;SDS011;10517;50.742;4.224;2022-10-31T11:38:19;8.00;;;4.60;;
20711;SDS011;10517;50.742;4.224;2022-10-31T11:43:20;8.88;;;4.50;;
20711;SDS011;10517;50.742;4.224;2022-10-31T11:45:46;8.20;;;4.90;;
20711;SDS011;10517;50.742;4.224;2022-10-31T11:48:17;13.43;;;5.15;;
20711;SDS011;10517;50.742;4.224;2022-10-31T11:50:52;8.05;;;4.45;;
20711;SDS011;10517;50.742;4.224;2022-10-31T11:53:29;11.27;;;5.15;;
20711;SDS011;10517;50.742;4.224;2022-10-31T11:56:09;9.48;;;4.82;;
20711;SDS011;10517;50.742;4.224;2022-10-31T11:58:38;13.02;;;5.65;;
20711;SDS011;10517;50.742;4.224;2022-10-31T12:01:04;12.43;;;4.97;;
20711;SDS011;10517;50.742;4.224;2022-10-31T12:06:03;8.88;;;4.88;;
20711;SDS011;10517;50.742;4.224;2022-10-31T12:08:35;7.15;;;4.75;;
20711;SDS011;10517;50.742;4.224;2022-10-31T12:11:15;13.25;;;5.10;;
20711;SDS011;10517;50.742;4.224;2022-10-31T12:13:48;7.55;;;4.25;;
20711;SDS011;10517;50.742;4.224;2022-10-31T12:19:39;6.68;;;4.10;;
20711;SDS011;10517;50.742;4.224;2022-10-31T12:28:04;7.63;;;3.95;;
20711;SDS011;10517;50.742;4.224;2022-10-31T12:33:50;7.80;;;3.80;;
20711;SDS011;10517;50.742;4.224;2022-10-31T12:44:29;10.70;;;3.65;;
20711;SDS011;10517;50.742;4.224;2022-10-31T12:52:56;6.60;;;4.13;;
20711;SDS011;10517;50.742;4.224;2022-10-31T12:58:29;8.15;;;3.30;;
20711;SDS011;10517;50.742;4.224;2022-10-31T13:01:06;4.10;;;3.25;;
20711;SDS011;10517;50.742;4.224;2022-10-31T13:07:22;11.70;;;4.25;;
20711;SDS011;10517;50.742;4.224;2022-10-31T13:10:19;9.38;;;3.03;;
20711;SDS011;10517;50.742;4.224;2022-10-31T13:16:24;4.18;;;2.80;;
20711;SDS011;10517;50.742;4.224;2022-10-31T13:18:58;8.13;;;3.47;;
20711;SDS011;10517;50.742;4.224;2022-10-31T13:21:34;5.53;;;3.13;;
20711;SDS011;10517;50.742;4.224;2022-10-31T13:24:14;7.68;;;3.10;;
20711;SDS011;10517;50.742;4.224;2022-10-31T13:26:54;9.20;;;3.00;;
20711;SDS011;10517;50.742;4.224;2022-10-31T13:29:33;5.78;;;3.17;;
20711;SDS011;10517;50.742;4.224;2022-10-31T13:32:13;11.18;;;3.60;;
20711;SDS011;10517;50.742;4.224;2022-10-31T13:34:40;5.18;;;2.70;;
20711;SDS011;10517;50.742;4.224;2022-10-31T13:37:13;7.53;;;2.83;;
20711;SDS011;10517;50.742;4.224;2022-10-31T13:45:15;5.60;;;3.22;;
20711;SDS011;10517;50.742;4.224;2022-10-31T13:48:16;3.17;;;2.60;;
20711;SDS011;10517;50.742;4.224;2022-10-31T13:50:58;6.93;;;3.30;;
20711;SDS011;10517;50.742;4.224;2022-10-31T13:53:45;6.85;;;2.80;;
20711;SDS011;10517;50.742;4.224;2022-10-31T13:56:31;6.85;;;3.63;;
20711;SDS011;10517;50.742;4.224;2022-10-31T13:59:04;8.00;;;3.20;;
20711;SDS011;10517;50.742;4.224;2022-10-31T14:01:33;10.18;;;3.78;;
20711;SDS011;10517;50.742;4.224;2022-10-31T14:04:16;6.30;;;4.00;;
20711;SDS011;10517;50.742;4.224;2022-10-31T14:06:53;10.95;;;3.35;;
20711;SDS011;10517;50.742;4.224;2022-10-31T14:12:11;7.32;;;2.88;;
20711;SDS011;10517;50.742;4.224;2022-10-31T14:14:49;10.00;;;2.95;;
20711;SDS011;10517;50.742;4.224;2022-10-31T14:17:18;7.32;;;3.15;;
20711;SDS011;10517;50.742;4.224;2022-10-31T14:20:00;9.95;;;3.22;;
20711;SDS011;10517;50.742;4.224;2022-10-31T14:22:34;8.23;;;3.20;;
20711;SDS011;10517;50.742;4.224;2022-10-31T14:25:49;10.55;;;3.80;;
20711;SDS011;10517;50.742;4.224;2022-10-31T14:27:50;4.95;;;2.72;;
20711;SDS011;10517;50.742;4.224;2022-10-31T14:30:18;5.53;;;2.75;;
20711;SDS011;10517;50.742;4.224;2022-10-31T14:32:54;7.43;;;3.03;;
20711;SDS011;10517;50.742;4.224;2022-10-31T14:35:24;14.38;;;3.60;;
20711;SDS011;10517;50.742;4.224;2022-10-31T14:43:52;8.52;;;3.17;;
20711;SDS011;10517;50.742;4.224;2022-10-31T14:47:06;4.60;;;2.58;;
20711;SDS011;10517;50.742;4.224;2022-10-31T14:52:22;8.05;;;3.08;;
20711;SDS011;10517;50.742;4.224;2022-10-31T14:54:49;6.35;;;3.58;;
20711;SDS011;10517;50.742;4.224;2022-10-31T14:59:50;7.75;;;3.42;;
20711;SDS011;10517;50.742;4.224;2022-10-31T15:02:23;3.47;;;2.45;;
20711;SDS011;10517;50.742;4.224;2022-10-31T15:04:57;4.53;;;2.80;;
20711;SDS011;10517;50.742;4.224;2022-10-31T15:07:24;9.18;;;3.00;;
20711;SDS011;10517;50.742;4.224;2022-10-31T15:09:58;10.10;;;3.30;;
20711;SDS011;10517;50.742;4.224;2022-10-31T15:12:30;6.40;;;3.17;;
20711;SDS011;10517;50.742;4.224;2022-10-31T15:14:57;6.45;;;2.92;;
20711;SDS011;10517;50.742;4.224;2022-10-31T15:17:35;6.57;;;2.85;;
20711;SDS011;10517;50.742;4.224;2022-10-31T15:20:07;13.20;;;3.72;;
20711;SDS011;10517;50.742;4.224;2022-10-31T15:22:35;13.15;;;3.90;;
20711;SDS011;10517;50.742;4.224;2022-10-31T15:25:01;8.73;;;2.88;;
20711;SDS011;10517;50.742;4.224;2022-10-31T15:27:27;10.05;;;4.10;;
20711;SDS011;10517;50.742;4.224;2022-10-31T15:29:55;7.18;;;3.05;;
20711;SDS011;10517;50.742;4.224;2022-10-31T15:32:25;7.40;;;3.28;;
20711;SDS011;10517;50.742;4.224;2022-10-31T15:34:52;16.77;;;3.45;;
20711;SDS011;10517;50.742;4.224;2022-10-31T15:37:21;13.55;;;3.75;;
20711;SDS011;10517;50.742;4.224;2022-10-31T15:39:49;7.32;;;2.78;;
20711;SDS011;10517;50.742;4.224;2022-10-31T15:42:23;10.00;;;3.20;;
20711;SDS011;10517;50.742;4.224;2022-10-31T15:45:04;8.32;;;3.25;;
20711;SDS011;10517;50.742;4.224;2022-10-31T15:47:45;6.05;;;3.20;;
20711;SDS011;10517;50.742;4.224;2022-10-31T15:50:31;8.40;;;2.88;;
20711;SDS011;10517;50.742;4.224;2022-10-31T15:53:00;8.20;;;3.45;;
20711;SDS011;10517;50.742;4.224;2022-10-31T15:55:28;6.03;;;3.88;;
20711;SDS011;10517;50.742;4.224;2022-10-31T15:57:58;8.32;;;3.80;;
20711;SDS011;10517;50.742;4.224;2022-10-31T16:00:27;7.32;;;3.63;;
20711;SDS011;10517;50.742;4.224;2022-10-31T16:05:38;21.23;;;3.90;;
20711;SDS011;10517;50.742;4.224;2022-10-31T16:09:18;5.50;;;2.95;;
20711;SDS011;10517;50.742;4.224;2022-10-31T16:13:40;8.05;;;3.33;;
20711;SDS011;10517;50.742;4.224;2022-10-31T16:16:17;12.10;;;3.97;;
20711;SDS011;10517;50.742;4.224;2022-10-31T16:18:45;9.55;;;3.45;;
20711;SDS011;10517;50.742;4.224;2022-10-31T16:21:11;12.02;;;3.50;;
20711;SDS011;10517;50.742;4.224;2022-10-31T16:23:37;7.63;;;3.33;;
20711;SDS011;10517;50.742;4.224;2022-10-31T16:26:09;6.65;;;3.90;;
20711;SDS011;10517;50.742;4.224;2022-10-31T16:28:38;6.18;;;3.67;;
20711;SDS011;10517;50.742;4.224;2022-10-31T16:31:12;7.35;;;3.58;;
20711;SDS011;10517;50.742;4.224;2022-10-31T16:33:39;9.35;;;3.47;;
20711;SDS011;10517;50.742;4.224;2022-10-31T16:38:55;7.28;;;3.42;;
20711;SDS011;10517;50.742;4.224;2022-10-31T16:41:21;7.45;;;3.50;;
20711;SDS011;10517;50.742;4.224;2022-10-31T16:43:47;6.78;;;2.95;;
20711;SDS011;10517;50.742;4.224;2022-10-31T16:46:23;10.77;;;3.47;;
20711;SDS011;10517;50.742;4.224;2022-10-31T16:48:50;4.90;;;2.60;;
20711;SDS011;10517;50.742;4.224;2022-10-31T16:51:16;11.43;;;3.67;;
20711;SDS011;10517;50.742;4.224;2022-10-31T16:53:42;4.85;;;3.25;;
20711;SDS011;10517;50.742;4.224;2022-10-31T16:56:15;6.70;;;3.10;;
20711;SDS011;10517;50.742;4.224;2022-10-31T16:58:42;7.80;;;3.53;;
20711;SDS011;10517;50.742;4.224;2022-10-31T17:01:09;7.82;;;3.20;;
20711;SDS011;10517;50.742;4.224;2022-10-31T17:03:37;8.43;;;3.28;;
20711;SDS011;10517;50.742;4.224;2022-10-31T17:06:03;8.93;;;3.28;;
20711;SDS011;10517;50.742;4.224;2022-10-31T17:08:29;8.15;;;3.33;;
20711;SDS011;10517;50.742;4.224;2022-10-31T17:10:55;10.30;;;3.65;;
20711;SDS011;10517;50.742;4.224;2022-10-31T17:13:23;6.57;;;3.05;;
20711;SDS011;10517;50.742;4.224;2022-10-31T17:15:52;7.95;;;2.90;;